sensor_id;sensor_type;location;lat;lon;timestamp;P1;durP1;ratioP1;P2;durP2;ratioP2
18983;SDS011;9626;52.552;13.436;2023-04-25T00:00:00;3.77;;;2.53;;
18983;SDS011;9626;52.552;13.436;2023-04-25T00:02:26;4.60;;;3.00;;
18983;SDS011;9626;52.552;13.436;2023-04-25T00:04:53;3.47;;;2.33;;
18983;SDS011;9626;52.552;13.436;2023-04-25T00:07:19;3.47;;;2.47;;
18983;SDS011;9626;52.552;13.436;2023-04-25T00:09:45;6.70;;;2.77;;
18983;SDS011;9626;52.552;13.436;2023-04-25T00:12:12;3.47;;;2.40;;
18983;SDS011;9626;52.552;13.436;2023-04-25T00:14:38;4.87;;;2.40;;
18983;SDS011;9626;52.552;13.436;2023-04-25T00:17:04;4.30;;;2.60;;
18983;SDS011;9626;52.552;13.436;2023-04-25T00:19:31;3.43;;;2.37;;
18983;SDS011;9626;52.552;13.436;2023-04-25T00:21:58;3.23;;;2.00;;
18983;SDS011;9626;52.552;13.436;2023-04-25T00:24:24;4.87;;;2.30;;
18983;SDS011;9626;52.552;13.436;2023-04-25T00:26:50;6.50;;;2.47;;
18983;SDS011;9626;52.552;13.436;2023-04-25T00:29:16;5.20;;;2.17;;
18983;SDS011;9626;52.552;13.436;2023-04-25T00:31:42;8.17;;;2.80;;
18983;SDS011;9626;52.552;13.436;2023-04-25T00:34:08;6.77;;;2.63;;
18983;SDS011;9626;52.552;13.436;2023-04-25T00:36:34;6.83;;;2.20;;
18983;SDS011;9626;52.552;13.436;2023-04-25T00:39:00;4.70;;;2.00;;
18983;SDS011;9626;52.552;13.436;2023-04-25T00:41:26;4.47;;;2.20;;
18983;SDS011;9626;52.552;13.436;2023-04-25T00:43:53;4.47;;;2.30;;
18983;SDS011;9626;52.552;13.436;2023-04-25T00:46:20;5.40;;;2.50;;
18983;SDS011;9626;52.552;13.436;2023-04-25T00:48:46;4.87;;;2.40;;
18983;SDS011;9626;52.552;13.436;2023-04-25T00:51:13;6.53;;;2.43;;
18983;SDS011;9626;52.552;13.436;2023-04-25T00:53:46;4.87;;;2.47;;
18983;SDS011;9626;52.552;13.436;2023-04-25T00:56:14;12.10;;;2.63;;
18983;SDS011;9626;52.552;13.436;2023-04-25T00:58:41;7.47;;;2.30;;
18983;SDS011;9626;52.552;13.436;2023-04-25T01:01:08;8.37;;;2.70;;
18983;SDS011;9626;52.552;13.436;2023-04-25T01:03:37;5.83;;;2.57;;
18983;SDS011;9626;52.552;13.436;2023-04-25T01:06:08;11.33;;;2.60;;
18983;SDS011;9626;52.552;13.436;2023-04-25T01:08:36;6.10;;;2.23;;
18983;SDS011;9626;52.552;13.436;2023-04-25T01:11:03;6.63;;;2.60;;
18983;SDS011;9626;52.552;13.436;2023-04-25T01:13:30;5.77;;;2.67;;
18983;SDS011;9626;52.552;13.436;2023-04-25T01:15:58;5.97;;;2.33;;
18983;SDS011;9626;52.552;13.436;2023-04-25T01:18:24;10.73;;;2.70;;
18983;SDS011;9626;52.552;13.436;2023-04-25T01:20:51;6.63;;;2.90;;
18983;SDS011;9626;52.552;13.436;2023-04-25T01:23:18;6.97;;;3.10;;
18983;SDS011;9626;52.552;13.436;2023-04-25T01:25:46;8.33;;;2.70;;
18983;SDS011;9626;52.552;13.436;2023-04-25T01:28:12;5.80;;;1.87;;
18983;SDS011;9626;52.552;13.436;2023-04-25T01:30:39;6.27;;;2.97;;
18983;SDS011;9626;52.552;13.436;2023-04-25T01:33:06;7.30;;;2.87;;
18983;SDS011;9626;52.552;13.436;2023-04-25T01:35:33;6.90;;;2.67;;
18983;SDS011;9626;52.552;13.436;2023-04-25T01:38:00;8.33;;;3.20;;
18983;SDS011;9626;52.552;13.436;2023-04-25T01:40:26;12.70;;;3.37;;
18983;SDS011;9626;52.552;13.436;2023-04-25T01:42:53;7.00;;;2.90;;
18983;SDS011;9626;52.552;13.436;2023-04-25T01:45:20;5.53;;;3.00;;
18983;SDS011;9626;52.552;13.436;2023-04-25T01:47:46;5.87;;;3.10;;
18983;SDS011;9626;52.552;13.436;2023-04-25T01:50:15;6.93;;;2.60;;
18983;SDS011;9626;52.552;13.436;2023-04-25T01:52:43;8.60;;;3.37;;
18983;SDS011;9626;52.552;13.436;2023-04-25T01:55:09;6.33;;;3.23;;
18983;SDS011;9626;52.552;13.436;2023-04-25T01:57:35;6.07;;;2.93;;
18983;SDS011;9626;52.552;13.436;2023-04-25T02:00:02;6.80;;;3.00;;
18983;SDS011;9626;52.552;13.436;2023-04-25T02:02:32;6.50;;;2.87;;
18983;SDS011;9626;52.552;13.436;2023-04-25T02:04:58;7.87;;;3.37;;
18983;SDS011;9626;52.552;13.436;2023-04-25T02:07:24;6.57;;;2.90;;
18983;SDS011;9626;52.552;13.436;2023-04-25T02:09:51;5.10;;;2.93;;
18983;SDS011;9626;52.552;13.436;2023-04-25T02:12:17;6.60;;;3.53;;
18983;SDS011;9626;52.552;13.436;2023-04-25T02:14:45;7.33;;;3.27;;
18983;SDS011;9626;52.552;13.436;2023-04-25T02:17:12;9.43;;;3.20;;
18983;SDS011;9626;52.552;13.436;2023-04-25T02:19:39;6.40;;;3.00;;
18983;SDS011;9626;52.552;13.436;2023-04-25T02:22:05;8.50;;;3.20;;
18983;SDS011;9626;52.552;13.436;2023-04-25T02:24:32;6.50;;;3.53;;
18983;SDS011;9626;52.552;13.436;2023-04-25T02:26:59;6.97;;;3.30;;
18983;SDS011;9626;52.552;13.436;2023-04-25T02:29:25;10.43;;;3.73;;
18983;SDS011;9626;52.552;13.436;2023-04-25T02:31:52;12.33;;;3.27;;
18983;SDS011;9626;52.552;13.436;2023-04-25T02:34:18;8.47;;;3.70;;
18983;SDS011;9626;52.552;13.436;2023-04-25T02:36:45;7.87;;;2.73;;
18983;SDS011;9626;52.552;13.436;2023-04-25T02:39:11;6.23;;;3.50;;
18983;SDS011;9626;52.552;13.436;2023-04-25T02:41:37;6.90;;;2.97;;
18983;SDS011;9626;52.552;13.436;2023-04-25T02:44:03;6.17;;;3.50;;
18983;SDS011;9626;52.552;13.436;2023-04-25T02:46:30;9.20;;;3.30;;
18983;SDS011;9626;52.552;13.436;2023-04-25T02:48:56;7.10;;;3.43;;
18983;SDS011;9626;52.552;13.436;2023-04-25T02:51:23;8.70;;;3.73;;
18983;SDS011;9626;52.552;13.436;2023-04-25T02:53:49;8.23;;;3.63;;
18983;SDS011;9626;52.552;13.436;2023-04-25T02:56:15;9.50;;;3.87;;
18983;SDS011;9626;52.552;13.436;2023-04-25T02:58:41;8.10;;;2.97;;
18983;SDS011;9626;52.552;13.436;2023-04-25T03:01:07;10.70;;;3.70;;
18983;SDS011;9626;52.552;13.436;2023-04-25T03:03:33;8.67;;;3.73;;
18983;SDS011;9626;52.552;13.436;2023-04-25T03:05:59;8.10;;;3.70;;
18983;SDS011;9626;52.552;13.436;2023-04-25T03:08:25;9.60;;;4.27;;
18983;SDS011;9626;52.552;13.436;2023-04-25T03:10:55;7.43;;;3.20;;
18983;SDS011;9626;52.552;13.436;2023-04-25T03:13:21;11.73;;;4.30;;
18983;SDS011;9626;52.552;13.436;2023-04-25T03:15:47;8.93;;;4.27;;
18983;SDS011;9626;52.552;13.436;2023-04-25T03:18:13;7.70;;;3.53;;
18983;SDS011;9626;52.552;13.436;2023-04-25T03:20:39;7.37;;;3.83;;
18983;SDS011;9626;52.552;13.436;2023-04-25T03:23:07;8.20;;;3.70;;
18983;SDS011;9626;52.552;13.436;2023-04-25T03:25:33;6.53;;;3.70;;
18983;SDS011;9626;52.552;13.436;2023-04-25T03:28:00;10.00;;;3.53;;
18983;SDS011;9626;52.552;13.436;2023-04-25T03:30:26;11.30;;;4.07;;
18983;SDS011;9626;52.552;13.436;2023-04-25T03:32:52;7.00;;;3.97;;
18983;SDS011;9626;52.552;13.436;2023-04-25T03:35:18;8.90;;;4.10;;
18983;SDS011;9626;52.552;13.436;2023-04-25T03:37:44;8.73;;;4.40;;
18983;SDS011;9626;52.552;13.436;2023-04-25T03:40:11;9.30;;;3.90;;
18983;SDS011;9626;52.552;13.436;2023-04-25T03:42:37;9.30;;;3.73;;
18983;SDS011;9626;52.552;13.436;2023-04-25T03:45:04;9.03;;;4.47;;
18983;SDS011;9626;52.552;13.436;2023-04-25T03:47:30;9.63;;;3.97;;
18983;SDS011;9626;52.552;13.436;2023-04-25T03:49:56;9.67;;;5.30;;
18983;SDS011;9626;52.552;13.436;2023-04-25T03:52:22;8.03;;;3.97;;
18983;SDS011;9626;52.552;13.436;2023-04-25T03:54:48;8.93;;;4.00;;
18983;SDS011;9626;52.552;13.436;2023-04-25T03:57:14;8.40;;;4.37;;
18983;SDS011;9626;52.552;13.436;2023-04-25T03:59:40;8.60;;;4.30;;
18983;SDS011;9626;52.552;13.436;2023-04-25T04:02:06;9.27;;;3.97;;
18983;SDS011;9626;52.552;13.436;2023-04-25T04:04:32;7.90;;;4.00;;
18983;SDS011;9626;52.552;13.436;2023-04-25T04:06:58;6.50;;;3.77;;
18983;SDS011;9626;52.552;13.436;2023-04-25T04:09:24;10.00;;;4.40;;
18983;SDS011;9626;52.552;13.436;2023-04-25T04:11:50;5.43;;;3.40;;
18983;SDS011;9626;52.552;13.436;2023-04-25T04:14:16;10.10;;;3.97;;
18983;SDS011;9626;52.552;13.436;2023-04-25T04:16:42;8.20;;;3.70;;
18983;SDS011;9626;52.552;13.436;2023-04-25T04:19:08;9.13;;;4.33;;
18983;SDS011;9626;52.552;13.436;2023-04-25T04:21:34;7.67;;;3.70;;
18983;SDS011;9626;52.552;13.436;2023-04-25T04:24:00;8.00;;;3.50;;
18983;SDS011;9626;52.552;13.436;2023-04-25T04:26:28;7.27;;;3.40;;
18983;SDS011;9626;52.552;13.436;2023-04-25T04:28:54;8.17;;;4.37;;
18983;SDS011;9626;52.552;13.436;2023-04-25T04:31:20;11.63;;;4.47;;
18983;SDS011;9626;52.552;13.436;2023-04-25T04:33:47;6.97;;;3.73;;
18983;SDS011;9626;52.552;13.436;2023-04-25T04:36:13;5.83;;;3.50;;
18983;SDS011;9626;52.552;13.436;2023-04-25T04:38:39;9.63;;;3.47;;
18983;SDS011;9626;52.552;13.436;2023-04-25T04:41:06;8.90;;;3.67;;
18983;SDS011;9626;52.552;13.436;2023-04-25T04:43:32;11.70;;;4.60;;
18983;SDS011;9626;52.552;13.436;2023-04-25T04:46:02;9.40;;;3.63;;
18983;SDS011;9626;52.552;13.436;2023-04-25T04:48:30;10.27;;;3.00;;
18983;SDS011;9626;52.552;13.436;2023-04-25T04:50:58;9.53;;;3.93;;
18983;SDS011;9626;52.552;13.436;2023-04-25T04:53:24;11.73;;;3.17;;
18983;SDS011;9626;52.552;13.436;2023-04-25T04:55:50;6.00;;;3.30;;
18983;SDS011;9626;52.552;13.436;2023-04-25T04:58:16;7.17;;;3.67;;
18983;SDS011;9626;52.552;13.436;2023-04-25T05:00:42;9.97;;;3.70;;
18983;SDS011;9626;52.552;13.436;2023-04-25T05:03:08;6.50;;;3.20;;
18983;SDS011;9626;52.552;13.436;2023-04-25T05:05:35;8.53;;;3.20;;
18983;SDS011;9626;52.552;13.436;2023-04-25T05:08:01;7.87;;;3.67;;
18983;SDS011;9626;52.552;13.436;2023-04-25T05:10:27;9.23;;;3.53;;
18983;SDS011;9626;52.552;13.436;2023-04-25T05:12:53;11.13;;;3.73;;
18983;SDS011;9626;52.552;13.436;2023-04-25T05:15:19;6.87;;;3.47;;
18983;SDS011;9626;52.552;13.436;2023-04-25T05:17:45;8.43;;;3.20;;
18983;SDS011;9626;52.552;13.436;2023-04-25T05:20:11;7.63;;;4.10;;
18983;SDS011;9626;52.552;13.436;2023-04-25T05:22:37;7.97;;;3.83;;
18983;SDS011;9626;52.552;13.436;2023-04-25T05:25:03;10.17;;;4.10;;
18983;SDS011;9626;52.552;13.436;2023-04-25T05:27:30;8.97;;;4.00;;
18983;SDS011;9626;52.552;13.436;2023-04-25T05:29:56;10.63;;;3.37;;
18983;SDS011;9626;52.552;13.436;2023-04-25T05:32:22;6.90;;;4.13;;
18983;SDS011;9626;52.552;13.436;2023-04-25T05:34:48;7.47;;;3.93;;
18983;SDS011;9626;52.552;13.436;2023-04-25T05:37:14;8.17;;;3.63;;
18983;SDS011;9626;52.552;13.436;2023-04-25T05:39:40;7.83;;;3.93;;
18983;SDS011;9626;52.552;13.436;2023-04-25T05:42:07;9.83;;;4.10;;
18983;SDS011;9626;52.552;13.436;2023-04-25T05:44:33;9.67;;;4.00;;
18983;SDS011;9626;52.552;13.436;2023-04-25T05:47:00;9.00;;;4.30;;
18983;SDS011;9626;52.552;13.436;2023-04-25T05:49:26;9.23;;;3.90;;
18983;SDS011;9626;52.552;13.436;2023-04-25T05:51:52;6.57;;;3.60;;
18983;SDS011;9626;52.552;13.436;2023-04-25T05:54:18;9.67;;;4.03;;
18983;SDS011;9626;52.552;13.436;2023-04-25T05:56:44;8.47;;;3.97;;
18983;SDS011;9626;52.552;13.436;2023-04-25T05:59:10;11.13;;;4.27;;
18983;SDS011;9626;52.552;13.436;2023-04-25T06:01:36;9.47;;;3.97;;
18983;SDS011;9626;52.552;13.436;2023-04-25T06:04:04;10.97;;;5.10;;
18983;SDS011;9626;52.552;13.436;2023-04-25T06:06:30;8.40;;;4.50;;
18983;SDS011;9626;52.552;13.436;2023-04-25T06:08:56;10.87;;;4.50;;
18983;SDS011;9626;52.552;13.436;2023-04-25T06:11:22;11.27;;;4.53;;
18983;SDS011;9626;52.552;13.436;2023-04-25T06:13:48;8.73;;;4.40;;
18983;SDS011;9626;52.552;13.436;2023-04-25T06:16:14;8.10;;;4.40;;
18983;SDS011;9626;52.552;13.436;2023-04-25T06:18:40;9.67;;;4.30;;
18983;SDS011;9626;52.552;13.436;2023-04-25T06:21:06;7.13;;;4.40;;
18983;SDS011;9626;52.552;13.436;2023-04-25T06:23:33;10.63;;;4.80;;
18983;SDS011;9626;52.552;13.436;2023-04-25T06:25:59;10.23;;;5.17;;
18983;SDS011;9626;52.552;13.436;2023-04-25T06:28:25;7.23;;;4.13;;
18983;SDS011;9626;52.552;13.436;2023-04-25T06:30:52;10.00;;;4.40;;
18983;SDS011;9626;52.552;13.436;2023-04-25T06:33:18;9.47;;;4.70;;
18983;SDS011;9626;52.552;13.436;2023-04-25T06:35:45;10.30;;;4.50;;
18983;SDS011;9626;52.552;13.436;2023-04-25T06:38:11;9.67;;;4.50;;
18983;SDS011;9626;52.552;13.436;2023-04-25T06:40:38;11.80;;;4.30;;
18983;SDS011;9626;52.552;13.436;2023-04-25T06:43:04;9.13;;;4.47;;
18983;SDS011;9626;52.552;13.436;2023-04-25T06:45:30;12.30;;;4.93;;
18983;SDS011;9626;52.552;13.436;2023-04-25T06:47:56;7.57;;;3.93;;
18983;SDS011;9626;52.552;13.436;2023-04-25T06:50:22;8.23;;;4.23;;
18983;SDS011;9626;52.552;13.436;2023-04-25T06:52:48;11.77;;;3.80;;
18983;SDS011;9626;52.552;13.436;2023-04-25T06:55:14;9.83;;;4.63;;
18983;SDS011;9626;52.552;13.436;2023-04-25T06:57:41;9.97;;;4.73;;
18983;SDS011;9626;52.552;13.436;2023-04-25T07:00:08;8.53;;;4.80;;
18983;SDS011;9626;52.552;13.436;2023-04-25T07:02:36;10.47;;;4.13;;
18983;SDS011;9626;52.552;13.436;2023-04-25T07:05:02;7.17;;;4.00;;
18983;SDS011;9626;52.552;13.436;2023-04-25T07:07:30;9.63;;;3.93;;
18983;SDS011;9626;52.552;13.436;2023-04-25T07:09:56;8.13;;;4.27;;
18983;SDS011;9626;52.552;13.436;2023-04-25T07:12:24;10.30;;;4.67;;
18983;SDS011;9626;52.552;13.436;2023-04-25T07:14:50;7.77;;;4.33;;
18983;SDS011;9626;52.552;13.436;2023-04-25T07:17:18;12.00;;;4.23;;
18983;SDS011;9626;52.552;13.436;2023-04-25T07:19:44;10.10;;;4.50;;
18983;SDS011;9626;52.552;13.436;2023-04-25T07:22:12;7.10;;;4.73;;
18983;SDS011;9626;52.552;13.436;2023-04-25T07:24:38;12.00;;;4.40;;
18983;SDS011;9626;52.552;13.436;2023-04-25T07:27:04;9.00;;;3.90;;
18983;SDS011;9626;52.552;13.436;2023-04-25T07:29:31;9.03;;;4.30;;
18983;SDS011;9626;52.552;13.436;2023-04-25T07:31:57;7.10;;;4.00;;
18983;SDS011;9626;52.552;13.436;2023-04-25T07:34:23;8.20;;;3.73;;
18983;SDS011;9626;52.552;13.436;2023-04-25T07:36:49;12.03;;;4.40;;
18983;SDS011;9626;52.552;13.436;2023-04-25T07:39:16;9.70;;;4.40;;
18983;SDS011;9626;52.552;13.436;2023-04-25T07:41:42;9.53;;;3.77;;
18983;SDS011;9626;52.552;13.436;2023-04-25T07:44:08;7.70;;;3.43;;
18983;SDS011;9626;52.552;13.436;2023-04-25T07:46:34;9.73;;;3.80;;
18983;SDS011;9626;52.552;13.436;2023-04-25T07:49:00;15.30;;;3.97;;
18983;SDS011;9626;52.552;13.436;2023-04-25T07:51:26;8.90;;;3.53;;
18983;SDS011;9626;52.552;13.436;2023-04-25T07:53:53;11.87;;;3.47;;
18983;SDS011;9626;52.552;13.436;2023-04-25T07:56:19;11.77;;;3.70;;
18983;SDS011;9626;52.552;13.436;2023-04-25T07:58:45;12.90;;;3.60;;
18983;SDS011;9626;52.552;13.436;2023-04-25T08:01:11;12.67;;;3.43;;
18983;SDS011;9626;52.552;13.436;2023-04-25T08:03:37;8.73;;;3.20;;
18983;SDS011;9626;52.552;13.436;2023-04-25T08:06:03;12.20;;;3.40;;
18983;SDS011;9626;52.552;13.436;2023-04-25T08:08:29;20.90;;;3.73;;
18983;SDS011;9626;52.552;13.436;2023-04-25T08:10:55;11.30;;;3.53;;
18983;SDS011;9626;52.552;13.436;2023-04-25T08:13:21;13.07;;;3.80;;
18983;SDS011;9626;52.552;13.436;2023-04-25T08:15:47;25.07;;;4.03;;
18983;SDS011;9626;52.552;13.436;2023-04-25T08:18:13;13.83;;;3.73;;
18983;SDS011;9626;52.552;13.436;2023-04-25T08:20:40;17.33;;;3.97;;
18983;SDS011;9626;52.552;13.436;2023-04-25T08:23:06;13.90;;;3.67;;
18983;SDS011;9626;52.552;13.436;2023-04-25T08:25:32;20.10;;;4.30;;
18983;SDS011;9626;52.552;13.436;2023-04-25T08:27:58;16.47;;;4.30;;
18983;SDS011;9626;52.552;13.436;2023-04-25T08:30:25;13.67;;;3.70;;
18983;SDS011;9626;52.552;13.436;2023-04-25T08:32:51;15.47;;;3.70;;
18983;SDS011;9626;52.552;13.436;2023-04-25T08:35:17;16.63;;;3.27;;
18983;SDS011;9626;52.552;13.436;2023-04-25T08:37:43;15.93;;;3.87;;
18983;SDS011;9626;52.552;13.436;2023-04-25T08:40:11;14.60;;;4.03;;
18983;SDS011;9626;52.552;13.436;2023-04-25T08:42:40;15.17;;;3.67;;
18983;SDS011;9626;52.552;13.436;2023-04-25T08:45:08;16.30;;;3.70;;
18983;SDS011;9626;52.552;13.436;2023-04-25T08:47:35;19.77;;;4.13;;
18983;SDS011;9626;52.552;13.436;2023-04-25T08:50:03;15.47;;;3.57;;
18983;SDS011;9626;52.552;13.436;2023-04-25T08:52:32;13.90;;;3.13;;
18983;SDS011;9626;52.552;13.436;2023-04-25T08:55:04;15.27;;;3.60;;
18983;SDS011;9626;52.552;13.436;2023-04-25T08:57:32;12.73;;;3.57;;
18983;SDS011;9626;52.552;13.436;2023-04-25T09:00:00;16.93;;;3.53;;
18983;SDS011;9626;52.552;13.436;2023-04-25T09:02:27;16.10;;;3.43;;
18983;SDS011;9626;52.552;13.436;2023-04-25T09:04:53;18.53;;;3.70;;
18983;SDS011;9626;52.552;13.436;2023-04-25T09:07:20;13.60;;;3.53;;
18983;SDS011;9626;52.552;13.436;2023-04-25T09:09:47;10.90;;;3.27;;
18983;SDS011;9626;52.552;13.436;2023-04-25T09:12:13;9.53;;;2.60;;
18983;SDS011;9626;52.552;13.436;2023-04-25T09:14:39;10.50;;;2.80;;
18983;SDS011;9626;52.552;13.436;2023-04-25T09:17:05;13.20;;;2.63;;
18983;SDS011;9626;52.552;13.436;2023-04-25T09:19:34;15.80;;;3.97;;
18983;SDS011;9626;52.552;13.436;2023-04-25T09:22:02;10.87;;;2.97;;
18983;SDS011;9626;52.552;13.436;2023-04-25T09:27:19;15.93;;;3.27;;
18983;SDS011;9626;52.552;13.436;2023-04-25T09:29:56;12.97;;;3.23;;
18983;SDS011;9626;52.552;13.436;2023-04-25T09:32:25;15.93;;;3.40;;
18983;SDS011;9626;52.552;13.436;2023-04-25T09:37:28;8.37;;;2.63;;
18983;SDS011;9626;52.552;13.436;2023-04-25T09:39:57;15.43;;;2.90;;
18983;SDS011;9626;52.552;13.436;2023-04-25T09:42:31;12.20;;;2.83;;
18983;SDS011;9626;52.552;13.436;2023-04-25T09:45:00;7.53;;;2.77;;
18983;SDS011;9626;52.552;13.436;2023-04-25T09:47:29;8.93;;;3.10;;
18983;SDS011;9626;52.552;13.436;2023-04-25T09:49:55;10.90;;;2.73;;
18983;SDS011;9626;52.552;13.436;2023-04-25T09:52:22;8.43;;;2.27;;
18983;SDS011;9626;52.552;13.436;2023-04-25T09:54:50;12.70;;;2.97;;
18983;SDS011;9626;52.552;13.436;2023-04-25T09:57:18;7.93;;;2.30;;
18983;SDS011;9626;52.552;13.436;2023-04-25T09:59:49;12.10;;;2.70;;
18983;SDS011;9626;52.552;13.436;2023-04-25T10:02:17;8.97;;;1.83;;
18983;SDS011;9626;52.552;13.436;2023-04-25T10:04:48;8.33;;;2.60;;
18983;SDS011;9626;52.552;13.436;2023-04-25T10:07:18;8.93;;;2.53;;
18983;SDS011;9626;52.552;13.436;2023-04-25T10:09:49;10.73;;;2.80;;
18983;SDS011;9626;52.552;13.436;2023-04-25T10:12:23;6.90;;;2.60;;
18983;SDS011;9626;52.552;13.436;2023-04-25T10:14:51;10.40;;;3.27;;
18983;SDS011;9626;52.552;13.436;2023-04-25T10:17:18;10.30;;;3.03;;
18983;SDS011;9626;52.552;13.436;2023-04-25T10:19:48;12.33;;;2.53;;
18983;SDS011;9626;52.552;13.436;2023-04-25T10:24:56;9.03;;;2.13;;
18983;SDS011;9626;52.552;13.436;2023-04-25T10:27:22;7.03;;;2.20;;
18983;SDS011;9626;52.552;13.436;2023-04-25T10:30:07;6.77;;;2.30;;
18983;SDS011;9626;52.552;13.436;2023-04-25T10:32:38;8.87;;;2.63;;
18983;SDS011;9626;52.552;13.436;2023-04-25T10:35:37;9.90;;;2.77;;
18983;SDS011;9626;52.552;13.436;2023-04-25T10:40:23;8.87;;;2.67;;
18983;SDS011;9626;52.552;13.436;2023-04-25T10:42:51;12.60;;;2.73;;
18983;SDS011;9626;52.552;13.436;2023-04-25T10:45:21;11.07;;;2.90;;
18983;SDS011;9626;52.552;13.436;2023-04-25T10:47:47;12.50;;;2.80;;
18983;SDS011;9626;52.552;13.436;2023-04-25T10:50:14;11.17;;;2.50;;
18983;SDS011;9626;52.552;13.436;2023-04-25T10:52:42;12.63;;;3.47;;
18983;SDS011;9626;52.552;13.436;2023-04-25T10:55:08;7.17;;;2.27;;
18983;SDS011;9626;52.552;13.436;2023-04-25T10:57:38;12.03;;;2.73;;
18983;SDS011;9626;52.552;13.436;2023-04-25T11:00:11;10.00;;;2.33;;
18983;SDS011;9626;52.552;13.436;2023-04-25T11:02:46;7.33;;;2.40;;
18983;SDS011;9626;52.552;13.436;2023-04-25T11:05:19;7.50;;;2.23;;
18983;SDS011;9626;52.552;13.436;2023-04-25T11:07:55;8.47;;;2.30;;
18983;SDS011;9626;52.552;13.436;2023-04-25T11:10:28;7.33;;;2.50;;
18983;SDS011;9626;52.552;13.436;2023-04-25T11:12:56;6.77;;;1.93;;
18983;SDS011;9626;52.552;13.436;2023-04-25T11:15:23;6.23;;;2.20;;
18983;SDS011;9626;52.552;13.436;2023-04-25T11:17:52;8.47;;;2.37;;
18983;SDS011;9626;52.552;13.436;2023-04-25T11:20:18;8.20;;;2.47;;
18983;SDS011;9626;52.552;13.436;2023-04-25T11:22:45;5.77;;;2.17;;
18983;SDS011;9626;52.552;13.436;2023-04-25T11:25:12;8.80;;;2.47;;
18983;SDS011;9626;52.552;13.436;2023-04-25T11:27:56;6.67;;;1.97;;
18983;SDS011;9626;52.552;13.436;2023-04-25T11:30:23;8.80;;;1.93;;
18983;SDS011;9626;52.552;13.436;2023-04-25T11:32:51;11.43;;;2.40;;
18983;SDS011;9626;52.552;13.436;2023-04-25T11:35:18;5.83;;;1.70;;
18983;SDS011;9626;52.552;13.436;2023-04-25T11:37:45;5.47;;;1.93;;
18983;SDS011;9626;52.552;13.436;2023-04-25T11:40:11;7.70;;;2.03;;
18983;SDS011;9626;52.552;13.436;2023-04-25T11:42:37;7.13;;;2.00;;
18983;SDS011;9626;52.552;13.436;2023-04-25T11:45:13;8.37;;;2.23;;
18983;SDS011;9626;52.552;13.436;2023-04-25T11:47:39;9.13;;;2.10;;
18983;SDS011;9626;52.552;13.436;2023-04-25T11:50:06;8.77;;;2.20;;
18983;SDS011;9626;52.552;13.436;2023-04-25T11:52:40;11.87;;;2.70;;
18983;SDS011;9626;52.552;13.436;2023-04-25T11:55:10;8.70;;;2.47;;
18983;SDS011;9626;52.552;13.436;2023-04-25T11:57:40;7.47;;;2.10;;
18983;SDS011;9626;52.552;13.436;2023-04-25T12:00:11;6.40;;;1.90;;
18983;SDS011;9626;52.552;13.436;2023-04-25T12:02:46;8.87;;;2.63;;
18983;SDS011;9626;52.552;13.436;2023-04-25T12:05:14;4.83;;;1.87;;
18983;SDS011;9626;52.552;13.436;2023-04-25T12:07:41;8.03;;;2.00;;
18983;SDS011;9626;52.552;13.436;2023-04-25T12:10:09;9.13;;;2.83;;
18983;SDS011;9626;52.552;13.436;2023-04-25T12:12:42;6.83;;;2.00;;
18983;SDS011;9626;52.552;13.436;2023-04-25T12:17:45;5.17;;;2.03;;
18983;SDS011;9626;52.552;13.436;2023-04-25T12:20:13;7.13;;;2.17;;
18983;SDS011;9626;52.552;13.436;2023-04-25T12:22:41;8.83;;;2.73;;
18983;SDS011;9626;52.552;13.436;2023-04-25T12:25:11;7.30;;;2.20;;
18983;SDS011;9626;52.552;13.436;2023-04-25T12:27:38;6.57;;;2.20;;
18983;SDS011;9626;52.552;13.436;2023-04-25T12:30:09;8.43;;;2.37;;
18983;SDS011;9626;52.552;13.436;2023-04-25T12:32:36;10.13;;;2.33;;
18983;SDS011;9626;52.552;13.436;2023-04-25T12:35:04;6.83;;;2.10;;
18983;SDS011;9626;52.552;13.436;2023-04-25T12:37:32;6.47;;;2.30;;
18983;SDS011;9626;52.552;13.436;2023-04-25T12:39:58;6.03;;;2.00;;
18983;SDS011;9626;52.552;13.436;2023-04-25T12:42:24;6.43;;;2.03;;
18983;SDS011;9626;52.552;13.436;2023-04-25T12:44:50;8.10;;;2.30;;
18983;SDS011;9626;52.552;13.436;2023-04-25T12:47:16;4.77;;;1.93;;
18983;SDS011;9626;52.552;13.436;2023-04-25T12:49:42;6.70;;;1.93;;
18983;SDS011;9626;52.552;13.436;2023-04-25T12:52:08;6.90;;;2.17;;
18983;SDS011;9626;52.552;13.436;2023-04-25T12:54:34;5.73;;;1.60;;
18983;SDS011;9626;52.552;13.436;2023-04-25T12:57:00;7.87;;;2.30;;
18983;SDS011;9626;52.552;13.436;2023-04-25T12:59:28;7.00;;;2.00;;
18983;SDS011;9626;52.552;13.436;2023-04-25T13:01:54;5.07;;;1.90;;
18983;SDS011;9626;52.552;13.436;2023-04-25T13:04:20;6.90;;;2.47;;
18983;SDS011;9626;52.552;13.436;2023-04-25T13:06:47;7.93;;;1.93;;
18983;SDS011;9626;52.552;13.436;2023-04-25T13:09:13;6.13;;;1.90;;
18983;SDS011;9626;52.552;13.436;2023-04-25T13:11:39;3.30;;;1.60;;
18983;SDS011;9626;52.552;13.436;2023-04-25T13:14:06;7.47;;;1.70;;
18983;SDS011;9626;52.552;13.436;2023-04-25T13:16:32;4.90;;;1.40;;
18983;SDS011;9626;52.552;13.436;2023-04-25T13:18:58;4.03;;;1.60;;
18983;SDS011;9626;52.552;13.436;2023-04-25T13:21:24;6.73;;;2.00;;
18983;SDS011;9626;52.552;13.436;2023-04-25T13:23:51;5.10;;;1.57;;
18983;SDS011;9626;52.552;13.436;2023-04-25T13:26:17;7.57;;;1.97;;
18983;SDS011;9626;52.552;13.436;2023-04-25T13:28:43;5.73;;;1.70;;
18983;SDS011;9626;52.552;13.436;2023-04-25T13:31:09;5.97;;;1.37;;
18983;SDS011;9626;52.552;13.436;2023-04-25T13:33:35;5.33;;;1.40;;
18983;SDS011;9626;52.552;13.436;2023-04-25T13:36:01;5.73;;;1.73;;
18983;SDS011;9626;52.552;13.436;2023-04-25T13:38:27;6.70;;;1.67;;
18983;SDS011;9626;52.552;13.436;2023-04-25T13:40:53;7.23;;;1.93;;
18983;SDS011;9626;52.552;13.436;2023-04-25T13:43:19;7.93;;;2.10;;
18983;SDS011;9626;52.552;13.436;2023-04-25T13:45:48;4.93;;;2.37;;
18983;SDS011;9626;52.552;13.436;2023-04-25T13:48:14;8.23;;;1.80;;
18983;SDS011;9626;52.552;13.436;2023-04-25T13:50:40;6.40;;;1.83;;
18983;SDS011;9626;52.552;13.436;2023-04-25T13:53:06;5.27;;;1.70;;
18983;SDS011;9626;52.552;13.436;2023-04-25T13:55:33;7.00;;;1.90;;
18983;SDS011;9626;52.552;13.436;2023-04-25T13:58:01;6.50;;;2.00;;
18983;SDS011;9626;52.552;13.436;2023-04-25T14:00:36;5.97;;;1.60;;
18983;SDS011;9626;52.552;13.436;2023-04-25T14:03:04;6.87;;;2.00;;
18983;SDS011;9626;52.552;13.436;2023-04-25T14:05:35;4.27;;;1.63;;
18983;SDS011;9626;52.552;13.436;2023-04-25T14:08:06;4.70;;;1.67;;
18983;SDS011;9626;52.552;13.436;2023-04-25T14:10:33;5.57;;;2.03;;
18983;SDS011;9626;52.552;13.436;2023-04-25T14:13:00;7.10;;;1.90;;
18983;SDS011;9626;52.552;13.436;2023-04-25T14:15:29;5.67;;;2.03;;
18983;SDS011;9626;52.552;13.436;2023-04-25T14:17:56;8.23;;;3.33;;
18983;SDS011;9626;52.552;13.436;2023-04-25T14:20:22;6.53;;;2.00;;
18983;SDS011;9626;52.552;13.436;2023-04-25T14:22:49;4.50;;;2.10;;
18983;SDS011;9626;52.552;13.436;2023-04-25T14:25:15;7.40;;;1.70;;
18983;SDS011;9626;52.552;13.436;2023-04-25T14:27:43;5.97;;;1.97;;
18983;SDS011;9626;52.552;13.436;2023-04-25T14:30:12;5.97;;;1.87;;
18983;SDS011;9626;52.552;13.436;2023-04-25T14:32:39;5.33;;;1.90;;
18983;SDS011;9626;52.552;13.436;2023-04-25T14:35:05;5.03;;;1.60;;
18983;SDS011;9626;52.552;13.436;2023-04-25T14:37:31;8.17;;;1.90;;
18983;SDS011;9626;52.552;13.436;2023-04-25T14:39:57;6.70;;;1.70;;
18983;SDS011;9626;52.552;13.436;2023-04-25T14:42:23;6.30;;;1.60;;
18983;SDS011;9626;52.552;13.436;2023-04-25T14:44:49;6.47;;;2.13;;
18983;SDS011;9626;52.552;13.436;2023-04-25T14:47:15;5.93;;;1.90;;
18983;SDS011;9626;52.552;13.436;2023-04-25T14:49:41;4.73;;;1.70;;
18983;SDS011;9626;52.552;13.436;2023-04-25T14:52:07;9.07;;;2.17;;
18983;SDS011;9626;52.552;13.436;2023-04-25T14:54:33;5.60;;;1.80;;